Pino Ladra — ECGJ — position and weather

sailwx.info

Track history (hours):
 
Tides and Currents Weather Stations Pressure Air Temp Water Temp Dewpoint Dewpoint Depression Visibility Wind Speed Wind Dir Waves Ship Positions

Pino Ladra

Last reported at 2016-May-16 18:33 UTC. Time now 2016-May-30 03:01 UTC.
Position N 43°46' W 007°27'.
Warning: this ship's position is 13 days out of date.

Length 32 m; draft 5 m.

Type: Fishing. MMSI: 224134550.

Date/timePositionNaut miles runAvg speedWind from/ knotsBaromVisibWave heightAir tempDewpointWater temp
2016-May-16 18:33N 43°46' W 007°27'3 3.0
2016-May-16 17:34N 43°47' W 007°31'3 3.3
2016-May-16 16:33N 43°48' W 007°35'3 3.3
2016-May-16 15:33N 43°50' W 007°39'9 3.4
2016-May-16 13:04N 43°48' W 007°51'6 2.3
2016-May-16 10:24N 43°50' W 007°43'3 3.3
2016-May-16 09:33N 43°49' W 007°39'3 3.3
2016-May-16 08:33N 43°48' W 007°35'3 3.2
2016-May-16 07:34N 43°47' W 007°31'3 3.0
2016-May-16 06:33N 43°46' W 007°27'3 3.1
2016-May-16 05:30N 43°47' W 007°31'3 3.3
2016-May-16 04:33N 43°48' W 007°35'3 3.1
2016-May-16 03:33N 43°49' W 007°39'2 2.1
2016-May-16 02:27N 43°50' W 007°42'3 3.2
2016-May-16 01:33N 43°49' W 007°38'3 3.2
2016-May-16 00:33N 43°47' W 007°35'3 3.1
2016-May-15 23:33N 43°47' W 007°30'  
2016-May-13 14:33N 43°48' W 007°25'3 3.3
2016-May-13 13:33N 43°50' W 007°29'10 0.3
2016-May-11 23:11N 43°50' W 007°43'2 3.2
2016-May-11 22:33N 43°49' W 007°40'3 3.3
2016-May-11 21:33N 43°48' W 007°36'3 3.2
2016-May-11 20:33N 43°47' W 007°32'3 3.4
2016-May-11 19:32N 43°46' W 007°27'1 0.2
2016-May-11 15:11N 43°47' W 007°27'2 3.5
2016-May-11 14:33N 43°47' W 007°30'3 2.6
2016-May-11 13:32N 43°46' W 007°27'3 2.8
2016-May-11 12:33N 43°49' W 007°27'3 3.2
2016-May-11 11:28N 43°52' W 007°29'3 3.0
2016-May-11 10:29N 43°54' W 007°30'11 0.8
2016-May-10 20:27N 43°59' W 007°43'6 0.1
2016-May-08 23:33N 43°54' W 007°39'9 9.0
2016-May-08 22:33N 43°45' W 007°36'5 0.1
2016-May-06 19:33N 43°41' W 007°36'7 7.0
2016-May-06 18:33N 43°48' W 007°33'  
Track history (hours):
 
Tides and Currents Weather Stations Pressure Air Temp Water Temp Dewpoint Dewpoint Depression Visibility Wind Speed Wind Dir Waves Ship Positions

Pino Ladra

Last reported at 2016-May-16 18:33 UTC. Time now 2016-May-30 03:01 UTC.
Position N 43°46' W 007°27'.
Warning: this ship's position is 13 days out of date.

Length 32 m; draft 5 m.

Type: Fishing. MMSI: 224134550.

Date/timePositionNaut miles runAvg speedWind from/ knotsBaromVisibWave heightAir tempDewpointWater temp
2016-May-16 18:33N 43°46' W 007°27'3 3.0
2016-May-16 17:34N 43°47' W 007°31'3 3.3
2016-May-16 16:33N 43°48' W 007°35'3 3.3
2016-May-16 15:33N 43°50' W 007°39'9 3.4
2016-May-16 13:04N 43°48' W 007°51'6 2.3
2016-May-16 10:24N 43°50' W 007°43'3 3.3
2016-May-16 09:33N 43°49' W 007°39'3 3.3
2016-May-16 08:33N 43°48' W 007°35'3 3.2
2016-May-16 07:34N 43°47' W 007°31'3 3.0
2016-May-16 06:33N 43°46' W 007°27'3 3.1
2016-May-16 05:30N 43°47' W 007°31'3 3.3
2016-May-16 04:33N 43°48' W 007°35'3 3.1
2016-May-16 03:33N 43°49' W 007°39'2 2.1
2016-May-16 02:27N 43°50' W 007°42'3 3.2
2016-May-16 01:33N 43°49' W 007°38'3 3.2
2016-May-16 00:33N 43°47' W 007°35'3 3.1
2016-May-15 23:33N 43°47' W 007°30'  
2016-May-13 14:33N 43°48' W 007°25'3 3.3
2016-May-13 13:33N 43°50' W 007°29'10 0.3
2016-May-11 23:11N 43°50' W 007°43'2 3.2
2016-May-11 22:33N 43°49' W 007°40'3 3.3
2016-May-11 21:33N 43°48' W 007°36'3 3.2
2016-May-11 20:33N 43°47' W 007°32'3 3.4
2016-May-11 19:32N 43°46' W 007°27'1 0.2
2016-May-11 15:11N 43°47' W 007°27'2 3.5
2016-May-11 14:33N 43°47' W 007°30'3 2.6
2016-May-11 13:32N 43°46' W 007°27'3 2.8
2016-May-11 12:33N 43°49' W 007°27'3 3.2
2016-May-11 11:28N 43°52' W 007°29'3 3.0
2016-May-11 10:29N 43°54' W 007°30'11 0.8
2016-May-10 20:27N 43°59' W 007°43'6 0.1
2016-May-08 23:33N 43°54' W 007°39'9 9.0
2016-May-08 22:33N 43°45' W 007°36'5 0.1
2016-May-06 19:33N 43°41' W 007°36'7 7.0
2016-May-06 18:33N 43°48' W 007°33'  

Dump ship's entire track history